createdAt,value
2023-02-19T00:01:10.081Z,96.54
2023-02-19T00:03:38.148Z,96.65
2023-02-19T00:06:06.941Z,96.46
2023-02-19T00:08:34.799Z,96.57
2023-02-19T00:11:03.336Z,96.58
2023-02-19T00:13:30.415Z,96.51
2023-02-19T00:15:57.972Z,96.64
2023-02-19T00:18:24.892Z,96.50
2023-02-19T00:20:51.667Z,96.57
2023-02-19T00:23:18.675Z,96.45
2023-02-19T00:25:45.859Z,96.45
2023-02-19T00:28:12.899Z,96.39
2023-02-19T00:30:39.801Z,96.22
2023-02-19T00:33:08.987Z,96.14
2023-02-19T00:35:36.092Z,95.93
2023-02-19T00:38:03.632Z,95.83
2023-02-19T00:40:30.464Z,95.64
2023-02-19T00:42:57.473Z,95.60
2023-02-19T00:45:24.655Z,95.50
2023-02-19T00:47:51.516Z,95.53
2023-02-19T00:50:18.225Z,95.67
2023-02-19T00:52:45.165Z,96.33
2023-02-19T00:55:12.323Z,97.27
2023-02-19T00:57:39.217Z,98.65
2023-02-19T01:00:07.035Z,99.70
2023-02-19T01:02:34.388Z,100.00
2023-02-19T01:05:01.571Z,100.00
2023-02-19T01:07:28.749Z,100.00
2023-02-19T01:09:55.569Z,100.00
2023-02-19T01:12:24.250Z,100.00
2023-02-19T01:14:51.187Z,100.00
2023-02-19T01:17:18.168Z,100.00
2023-02-19T01:19:45.321Z,100.00
2023-02-19T01:22:13.343Z,100.00
2023-02-19T01:24:40.470Z,100.00
2023-02-19T01:27:08.075Z,100.00
2023-02-19T01:29:34.934Z,100.00
2023-02-19T01:32:02.284Z,100.00
2023-02-19T01:34:33.190Z,100.00
2023-02-19T01:37:00.238Z,100.00
2023-02-19T01:39:27.143Z,100.00
2023-02-19T01:41:54.319Z,100.00
2023-02-19T01:44:20.927Z,100.00
2023-02-19T01:46:48.554Z,100.00
2023-02-19T01:49:27.252Z,100.00
2023-02-19T01:52:08.900Z,100.00
2023-02-19T01:54:38.415Z,100.00
2023-02-19T01:57:08.265Z,100.00
2023-02-19T01:59:36.236Z,100.00
2023-02-19T02:02:03.394Z,100.00
2023-02-19T02:04:31.608Z,100.00
2023-02-19T02:07:02.347Z,100.00
2023-02-19T02:09:49.516Z,100.00
2023-02-19T02:12:16.837Z,100.00
2023-02-19T02:14:46.899Z,100.00
2023-02-19T02:17:26.414Z,100.00
2023-02-19T02:20:08.844Z,100.00
2023-02-19T02:22:40.695Z,100.00
2023-02-19T02:25:22.472Z,100.00
2023-02-19T02:28:16.390Z,100.00
2023-02-19T02:30:47.266Z,100.00
2023-02-19T02:33:26.401Z,100.00
2023-02-19T02:35:56.523Z,100.00
2023-02-19T02:38:28.731Z,100.00
2023-02-19T02:40:56.727Z,100.00
2023-02-19T02:43:23.900Z,100.00
2023-02-19T02:45:51.152Z,100.00
2023-02-19T02:48:30.303Z,100.00
2023-02-19T02:50:57.172Z,100.00
2023-02-19T02:54:03.177Z,100.00
2023-02-19T02:56:31.558Z,100.00
2023-02-19T02:59:00.466Z,100.00
2023-02-19T03:01:48.793Z,100.00
2023-02-19T03:04:33.639Z,100.00
2023-02-19T03:07:07.980Z,100.00
2023-02-19T03:09:43.074Z,100.00
2023-02-19T03:12:34.220Z,100.00
2023-02-19T03:15:24.447Z,100.00
2023-02-19T03:18:11.873Z,100.00
2023-02-19T03:20:41.748Z,100.00
2023-02-19T03:23:09.356Z,100.00
2023-02-19T03:25:56.804Z,100.00
2023-02-19T03:28:46.996Z,100.00
2023-02-19T03:31:18.177Z,100.00
2023-02-19T03:33:47.377Z,100.00
2023-02-19T03:36:18.862Z,100.00
2023-02-19T03:39:03.938Z,100.00
2023-02-19T03:41:53.196Z,100.00
2023-02-19T03:44:36.302Z,100.00
2023-02-19T03:47:13.923Z,100.00
2023-02-19T03:49:43.644Z,100.00
2023-02-19T03:52:23.793Z,100.00
2023-02-19T03:55:15.436Z,100.00
2023-02-19T03:57:58.258Z,100.00
2023-02-19T04:00:33.493Z,100.00
2023-02-19T04:03:16.188Z,100.00
2023-02-19T04:05:47.043Z,100.00
2023-02-19T04:08:19.288Z,100.00
2023-02-19T04:10:47.661Z,100.00
2023-02-19T04:13:24.727Z,100.00
2023-02-19T04:15:54.169Z,100.00
2023-02-19T04:18:26.347Z,100.00
2023-02-19T04:20:53.883Z,100.00
2023-02-19T04:23:24.673Z,100.00
2023-02-19T04:25:56.309Z,100.00
2023-02-19T04:28:23.298Z,100.00
2023-02-19T04:30:50.381Z,100.00
2023-02-19T04:33:17.172Z,100.00
2023-02-19T04:35:44.233Z,100.00
2023-02-19T04:38:12.175Z,100.00
2023-02-19T04:40:39.049Z,100.00
2023-02-19T04:43:06.078Z,100.00
2023-02-19T04:45:32.805Z,100.00
2023-02-19T04:47:59.755Z,100.00
2023-02-19T04:50:26.711Z,100.00
2023-02-19T04:52:53.838Z,100.00
2023-02-19T04:55:20.877Z,100.00
2023-02-19T04:57:47.840Z,100.00
2023-02-19T05:00:14.831Z,100.00
2023-02-19T05:02:42.088Z,100.00
2023-02-19T05:05:09.167Z,100.00
2023-02-19T05:07:36.379Z,100.00
2023-02-19T05:10:03.241Z,100.00
2023-02-19T05:12:31.183Z,100.00
2023-02-19T05:14:58.354Z,100.00
2023-02-19T05:17:25.345Z,100.00
2023-02-19T05:19:52.763Z,100.00
2023-02-19T05:22:19.698Z,100.00
2023-02-19T05:24:46.546Z,100.00
2023-02-19T05:27:13.445Z,100.00
2023-02-19T05:29:40.364Z,100.00
2023-02-19T05:32:07.657Z,100.00
2023-02-19T05:34:35.018Z,100.00
2023-02-19T05:37:01.932Z,100.00
2023-02-19T05:39:28.897Z,100.00
2023-02-19T05:41:55.769Z,100.00
2023-02-19T05:44:22.984Z,100.00
2023-02-19T05:46:49.672Z,100.00
2023-02-19T05:49:16.627Z,100.00
2023-02-19T05:51:43.779Z,100.00
2023-02-19T05:54:10.754Z,100.00
2023-02-19T05:56:42.514Z,100.00
2023-02-19T05:59:18.153Z,100.00
2023-02-19T06:01:45.276Z,100.00
2023-02-19T06:04:13.887Z,100.00
2023-02-19T06:06:41.863Z,100.00
2023-02-19T06:09:09.567Z,100.00
2023-02-19T06:11:36.738Z,100.00
2023-02-19T06:14:04.084Z,100.00
2023-02-19T06:16:33.210Z,100.00
2023-02-19T06:19:02.971Z,100.00
2023-02-19T06:21:29.813Z,100.00
2023-02-19T06:23:57.058Z,100.00
2023-02-19T06:26:24.834Z,100.00
2023-02-19T06:28:52.918Z,100.00
2023-02-19T06:31:20.873Z,100.00
2023-02-19T06:33:48.019Z,100.00
2023-02-19T06:36:16.765Z,100.00
2023-02-19T06:38:44.415Z,100.00
2023-02-19T06:41:12.950Z,100.00
2023-02-19T06:43:40.489Z,100.00
2023-02-19T06:46:08.053Z,100.00
2023-02-19T06:48:35.605Z,100.00
2023-02-19T06:51:03.624Z,100.00
2023-02-19T06:53:30.652Z,100.00
2023-02-19T06:56:05.888Z,100.00
2023-02-19T06:58:33.643Z,100.00
2023-02-19T07:01:00.691Z,100.00
2023-02-19T07:03:27.983Z,100.00
2023-02-19T07:05:54.849Z,100.00
2023-02-19T07:08:22.230Z,100.00
2023-02-19T07:10:57.869Z,100.00
2023-02-19T07:13:26.857Z,100.00
2023-02-19T07:15:59.839Z,100.00
2023-02-19T07:18:27.489Z,100.00
2023-02-19T07:20:54.755Z,100.00
2023-02-19T07:23:21.681Z,100.00
2023-02-19T07:25:49.181Z,100.00
2023-02-19T07:28:16.455Z,100.00
2023-02-19T07:30:43.529Z,100.00
2023-02-19T07:33:10.887Z,100.00
2023-02-19T07:35:38.234Z,100.00
2023-02-19T07:38:05.346Z,100.00
2023-02-19T07:40:32.619Z,100.00
2023-02-19T07:43:00.637Z,100.00
2023-02-19T07:45:27.839Z,100.00
2023-02-19T07:47:54.994Z,100.00
2023-02-19T07:50:22.080Z,100.00
2023-02-19T07:52:49.312Z,100.00
2023-02-19T07:55:16.308Z,100.00
2023-02-19T07:57:43.626Z,100.00
2023-02-19T08:00:11.278Z,100.00
2023-02-19T08:02:57.031Z,100.00
2023-02-19T08:05:24.030Z,100.00
2023-02-19T08:07:50.954Z,100.00
2023-02-19T08:10:37.553Z,100.00
2023-02-19T08:13:19.825Z,99.96
2023-02-19T08:15:47.498Z,99.44
2023-02-19T08:18:16.367Z,99.15
2023-02-19T08:20:43.997Z,99.14
2023-02-19T08:23:11.358Z,99.21
2023-02-19T08:25:38.756Z,98.99
2023-02-19T08:28:06.704Z,98.98
2023-02-19T08:30:34.267Z,99.09
2023-02-19T08:33:02.448Z,98.96
2023-02-19T08:35:29.650Z,99.08
2023-02-19T08:37:57.119Z,98.86
2023-02-19T08:40:24.886Z,98.95
2023-02-19T08:42:51.889Z,98.68
2023-02-19T08:45:19.302Z,98.57
2023-02-19T08:47:46.250Z,99.19
2023-02-19T08:50:13.524Z,99.68
2023-02-19T08:52:40.656Z,99.29
2023-02-19T08:55:08.225Z,98.98
2023-02-19T08:57:38.773Z,98.70
2023-02-19T09:00:07.268Z,99.27
2023-02-19T09:02:34.566Z,97.55
2023-02-19T09:05:01.793Z,96.96
2023-02-19T09:07:29.154Z,96.71
2023-02-19T09:09:56.445Z,96.85
2023-02-19T09:12:23.092Z,96.07
2023-02-19T09:14:50.422Z,95.84
2023-02-19T09:17:17.670Z,95.29
2023-02-19T09:19:44.964Z,94.68
2023-02-19T09:22:12.176Z,94.34
2023-02-19T09:24:39.468Z,94.08
2023-02-19T09:27:06.618Z,93.52
2023-02-19T09:29:34.450Z,93.37
2023-02-19T09:32:01.748Z,92.54
2023-02-19T09:34:29.025Z,92.30
2023-02-19T09:37:00.027Z,91.56
2023-02-19T09:39:27.358Z,91.52
2023-02-19T09:41:57.885Z,89.86
2023-02-19T09:44:30.939Z,88.87
2023-02-19T09:47:00.133Z,88.52
2023-02-19T09:49:33.700Z,89.48
2023-02-19T09:52:15.186Z,90.09
2023-02-19T09:54:42.816Z,88.31
2023-02-19T09:57:21.482Z,88.61
2023-02-19T09:59:54.242Z,87.81
2023-02-19T10:02:24.153Z,86.64
2023-02-19T10:04:52.089Z,87.08
2023-02-19T10:07:28.500Z,87.51
2023-02-19T10:10:02.995Z,85.65
2023-02-19T10:12:31.922Z,84.86
2023-02-19T10:15:16.381Z,85.20
2023-02-19T10:17:43.297Z,85.39
2023-02-19T10:20:16.119Z,85.07
2023-02-19T10:22:43.645Z,84.81
2023-02-19T10:25:16.920Z,84.92
2023-02-19T10:27:44.168Z,82.91
2023-02-19T10:30:37.376Z,81.72
2023-02-19T10:33:15.676Z,82.21
2023-02-19T10:35:53.715Z,79.51
2023-02-19T10:38:24.621Z,79.33
2023-02-19T10:40:59.037Z,80.26
2023-02-19T10:43:32.993Z,80.16
2023-02-19T10:46:21.321Z,80.46
2023-02-19T10:49:01.529Z,79.86
2023-02-19T10:51:47.895Z,77.37
2023-02-19T10:54:24.561Z,76.10
2023-02-19T10:56:51.716Z,75.19
2023-02-19T10:59:18.391Z,76.01
2023-02-19T11:02:03.723Z,76.30
2023-02-19T11:04:35.081Z,77.04
2023-02-19T11:07:15.398Z,75.96
2023-02-19T11:09:45.566Z,75.93
2023-02-19T11:12:14.282Z,75.32
2023-02-19T11:14:44.973Z,73.60
2023-02-19T11:17:24.712Z,73.51
2023-02-19T11:19:55.610Z,75.16
2023-02-19T11:22:31.921Z,75.96
2023-02-19T11:25:05.733Z,74.71
2023-02-19T11:27:32.753Z,73.96
2023-02-19T11:30:34.466Z,73.32
2023-02-19T11:33:18.287Z,71.28
2023-02-19T11:35:48.488Z,71.62
2023-02-19T11:38:18.233Z,70.50
2023-02-19T11:40:59.691Z,70.07
2023-02-19T11:43:43.049Z,69.29
2023-02-19T11:46:28.434Z,67.24
2023-02-19T11:49:26.905Z,67.30
2023-02-19T11:52:02.863Z,66.90
2023-02-19T11:54:38.330Z,67.57
2023-02-19T11:57:45.721Z,67.86
2023-02-19T12:00:30.904Z,66.66
2023-02-19T12:03:19.917Z,64.89
2023-02-19T12:05:55.366Z,63.17
2023-02-19T12:08:34.751Z,58.03
2023-02-19T12:11:19.518Z,56.61
2023-02-19T12:13:58.183Z,55.52
2023-02-19T12:16:50.688Z,55.71
2023-02-19T12:19:36.419Z,56.42
2023-02-19T12:22:31.216Z,54.47
2023-02-19T12:25:29.933Z,53.29
2023-02-19T12:28:17.101Z,53.50
2023-02-19T12:31:05.922Z,53.23
2023-02-19T12:33:59.940Z,51.36
2023-02-19T12:36:46.634Z,52.65
2023-02-19T12:39:57.356Z,50.17
2023-02-19T12:42:29.647Z,47.43
2023-02-19T12:45:02.780Z,47.25
2023-02-19T12:47:36.450Z,45.15
2023-02-19T12:50:17.416Z,44.66
2023-02-19T12:52:49.333Z,43.07
2023-02-19T12:55:30.079Z,41.96
2023-02-19T12:57:59.269Z,41.01
2023-02-19T13:00:43.346Z,39.87
2023-02-19T13:03:21.161Z,38.55
2023-02-19T13:05:58.626Z,35.57
2023-02-19T13:09:05.327Z,34.57
2023-02-19T13:11:40.169Z,34.07
2023-02-19T13:14:32.345Z,32.47
2023-02-19T13:17:29.494Z,31.87
2023-02-19T13:20:01.508Z,31.68
2023-02-19T13:23:04.925Z,31.71
2023-02-19T13:26:02.748Z,31.06
2023-02-19T13:28:47.824Z,31.59
2023-02-19T13:31:42.101Z,32.94
2023-02-19T13:34:41.287Z,33.91
2023-02-19T13:37:09.633Z,35.59
2023-02-19T13:39:37.149Z,36.84
2023-02-19T13:42:04.651Z,36.93
2023-02-19T13:44:33.050Z,35.47
2023-02-19T13:47:00.625Z,35.18
2023-02-19T13:49:36.251Z,33.40
2023-02-19T13:52:23.735Z,32.07
2023-02-19T13:54:51.305Z,32.20
2023-02-19T13:57:23.832Z,32.19
2023-02-19T13:59:52.077Z,31.30
2023-02-19T14:02:21.928Z,32.26
2023-02-19T14:04:57.082Z,33.74
2023-02-19T14:07:26.632Z,34.08
2023-02-19T14:09:54.262Z,34.77
2023-02-19T14:12:30.502Z,35.51
2023-02-19T14:14:57.536Z,36.52
2023-02-19T14:17:29.492Z,36.87
2023-02-19T14:20:18.338Z,37.29
2023-02-19T14:22:57.029Z,37.20
2023-02-19T14:25:23.961Z,37.08
2023-02-19T14:27:53.517Z,37.15
2023-02-19T14:30:23.248Z,38.24
2023-02-19T14:32:54.575Z,39.18
2023-02-19T14:35:24.741Z,39.74
2023-02-19T14:37:55.389Z,40.50
2023-02-19T14:40:35.408Z,40.48
2023-02-19T14:43:04.567Z,40.03
2023-02-19T14:45:40.999Z,39.86
2023-02-19T14:48:18.606Z,40.14
2023-02-19T14:50:49.610Z,40.71
2023-02-19T14:53:19.343Z,39.80
2023-02-19T14:55:46.954Z,38.74
2023-02-19T14:58:20.296Z,38.16
2023-02-19T15:00:47.109Z,38.30
2023-02-19T15:03:30.869Z,39.03
2023-02-19T15:06:12.758Z,40.44
2023-02-19T15:08:46.740Z,42.77
2023-02-19T15:11:19.122Z,43.79
2023-02-19T15:13:59.307Z,44.07
2023-02-19T15:16:28.006Z,43.38
2023-02-19T15:18:56.564Z,43.88
2023-02-19T15:21:28.144Z,43.46
2023-02-19T15:24:02.288Z,44.61
2023-02-19T15:26:38.030Z,45.65
2023-02-19T15:29:11.430Z,46.64
2023-02-19T15:31:52.170Z,46.78
2023-02-19T15:34:31.123Z,46.82
2023-02-19T15:37:02.401Z,46.46
2023-02-19T15:39:40.478Z,46.27
2023-02-19T15:42:09.716Z,46.25
2023-02-19T15:44:45.566Z,46.17
2023-02-19T15:47:28.167Z,46.20
2023-02-19T15:50:26.453Z,45.64
2023-02-19T15:53:04.648Z,45.36
2023-02-19T15:55:47.514Z,45.32
2023-02-19T15:58:33.191Z,45.42
2023-02-19T16:01:11.660Z,45.93
2023-02-19T16:03:38.990Z,46.23
2023-02-19T16:06:14.898Z,46.96
2023-02-19T16:08:46.941Z,48.35
2023-02-19T16:11:22.842Z,49.41
2023-02-19T16:14:13.068Z,50.37
2023-02-19T16:16:42.367Z,51.52
2023-02-19T16:19:09.868Z,52.52
2023-02-19T16:21:37.170Z,53.72
2023-02-19T16:24:17.468Z,55.28
2023-02-19T16:26:45.173Z,56.80
2023-02-19T16:29:23.946Z,57.83
2023-02-19T16:32:16.654Z,59.31
2023-02-19T16:34:44.615Z,60.13
2023-02-19T16:37:41.230Z,61.15
2023-02-19T16:40:08.087Z,62.18
2023-02-19T16:42:55.186Z,63.07
2023-02-19T16:45:22.292Z,63.99
2023-02-19T16:47:51.124Z,64.67
2023-02-19T16:50:23.155Z,65.53
2023-02-19T16:52:58.246Z,66.56
2023-02-19T16:55:26.132Z,67.23
2023-02-19T16:57:53.391Z,68.07
2023-02-19T17:00:32.933Z,68.59
2023-02-19T17:03:03.072Z,69.06
2023-02-19T17:05:32.494Z,69.69
2023-02-19T17:07:59.624Z,70.11
2023-02-19T17:10:27.904Z,70.73
2023-02-19T17:12:55.895Z,70.97
2023-02-19T17:15:23.323Z,71.31
2023-02-19T17:17:50.216Z,71.46
2023-02-19T17:20:28.052Z,72.38
2023-02-19T17:22:55.529Z,72.62
2023-02-19T17:25:23.252Z,72.79
2023-02-19T17:27:50.501Z,73.02
2023-02-19T17:30:29.228Z,73.49
2023-02-19T17:32:56.468Z,73.68
2023-02-19T17:35:23.788Z,73.76
2023-02-19T17:37:53.294Z,73.99
2023-02-19T17:40:33.843Z,74.64
2023-02-19T17:43:01.905Z,74.76
2023-02-19T17:45:28.904Z,75.12
2023-02-19T17:47:56.143Z,74.93
2023-02-19T17:50:30.234Z,75.18
2023-02-19T17:52:57.444Z,75.47
2023-02-19T17:55:24.937Z,75.76
2023-02-19T17:57:52.873Z,75.82
2023-02-19T18:00:28.862Z,76.55
2023-02-19T18:02:55.914Z,76.89
2023-02-19T18:05:24.000Z,76.98
2023-02-19T18:07:51.344Z,77.16
2023-02-19T18:10:19.898Z,77.22
2023-02-19T18:12:47.249Z,77.70
2023-02-19T18:15:23.670Z,77.75
2023-02-19T18:17:50.542Z,77.74
2023-02-19T18:20:22.193Z,77.90
2023-02-19T18:22:48.988Z,78.21
2023-02-19T18:25:16.935Z,78.66
2023-02-19T18:27:43.963Z,78.63
2023-02-19T18:30:11.792Z,78.92
2023-02-19T18:32:39.155Z,78.68
2023-02-19T18:35:06.616Z,79.02
2023-02-19T18:37:33.893Z,79.09
2023-02-19T18:40:01.224Z,79.25
2023-02-19T18:42:28.620Z,79.41
2023-02-19T18:44:55.963Z,80.04
2023-02-19T18:47:25.282Z,80.17
2023-02-19T18:49:57.218Z,80.42
2023-02-19T18:52:25.403Z,80.92
2023-02-19T18:54:54.236Z,81.67
2023-02-19T18:57:22.660Z,81.72
2023-02-19T18:59:49.893Z,82.44
2023-02-19T19:02:17.545Z,82.92
2023-02-19T19:04:49.279Z,82.83
2023-02-19T19:07:16.896Z,83.06
2023-02-19T19:09:44.511Z,83.19
2023-02-19T19:12:11.601Z,83.56
2023-02-19T19:14:38.684Z,83.28
2023-02-19T19:17:05.812Z,83.79
2023-02-19T19:19:33.473Z,83.92
2023-02-19T19:22:00.692Z,83.66
2023-02-19T19:24:27.704Z,83.68
2023-02-19T19:26:55.134Z,83.65
2023-02-19T19:29:22.710Z,83.70
2023-02-19T19:31:50.519Z,83.45
2023-02-19T19:34:18.903Z,83.61
2023-02-19T19:36:46.507Z,83.64
2023-02-19T19:39:14.007Z,83.56
2023-02-19T19:41:41.041Z,83.81
2023-02-19T19:44:09.366Z,84.18
2023-02-19T19:46:43.430Z,84.47
2023-02-19T19:49:10.744Z,84.45
2023-02-19T19:51:38.353Z,84.38
2023-02-19T19:54:08.321Z,84.54
2023-02-19T19:56:44.251Z,84.36
2023-02-19T19:59:15.149Z,84.23
2023-02-19T20:02:10.639Z,84.06
2023-02-19T20:04:37.970Z,84.15
2023-02-19T20:07:05.168Z,84.02
2023-02-19T20:09:32.235Z,83.71
2023-02-19T20:11:59.707Z,83.38
2023-02-19T20:14:27.001Z,83.03
2023-02-19T20:16:55.235Z,82.75
2023-02-19T20:19:22.629Z,82.59
2023-02-19T20:21:52.103Z,82.25
2023-02-19T20:24:25.866Z,82.19
2023-02-19T20:26:58.776Z,82.08
2023-02-19T20:29:28.637Z,81.90
2023-02-19T20:31:59.855Z,81.94
2023-02-19T20:34:27.393Z,81.89
2023-02-19T20:36:55.057Z,81.86
2023-02-19T20:39:23.176Z,81.96
2023-02-19T20:41:51.933Z,81.84
2023-02-19T20:44:19.264Z,81.74
2023-02-19T20:46:48.890Z,81.84
2023-02-19T20:49:18.358Z,82.13
2023-02-19T20:51:50.253Z,82.28
2023-02-19T20:54:21.497Z,82.45
2023-02-19T20:56:51.502Z,82.52
2023-02-19T20:59:19.659Z,82.54
2023-02-19T21:01:47.021Z,82.63
2023-02-19T21:04:14.845Z,82.80
2023-02-19T21:06:42.049Z,82.88
2023-02-19T21:09:09.246Z,83.18
2023-02-19T21:11:36.434Z,83.13
2023-02-19T21:14:03.638Z,83.35
2023-02-19T21:16:31.708Z,83.45
2023-02-19T21:18:59.542Z,83.59
2023-02-19T21:21:26.842Z,83.84
2023-02-19T21:23:54.813Z,84.06
2023-02-19T21:26:21.938Z,84.03
2023-02-19T21:28:51.202Z,84.03
2023-02-19T21:31:18.483Z,84.57
2023-02-19T21:33:45.898Z,84.45
2023-02-19T21:36:13.434Z,84.59
2023-02-19T21:38:40.738Z,85.01
2023-02-19T21:41:07.785Z,85.03
2023-02-19T21:43:34.938Z,85.06
2023-02-19T21:46:01.808Z,85.08
2023-02-19T21:48:28.876Z,85.26
2023-02-19T21:50:55.502Z,85.20
2023-02-19T21:53:23.012Z,85.38
2023-02-19T21:55:58.363Z,85.34
2023-02-19T21:58:26.912Z,85.61
2023-02-19T22:00:54.145Z,85.62
2023-02-19T22:03:21.596Z,85.66
2023-02-19T22:05:48.282Z,85.66
2023-02-19T22:08:17.245Z,85.75
2023-02-19T22:10:44.410Z,85.68
2023-02-19T22:13:12.935Z,85.66
2023-02-19T22:15:43.400Z,85.98
2023-02-19T22:18:10.365Z,85.88
2023-02-19T22:20:49.919Z,86.16
2023-02-19T22:23:16.665Z,86.31
2023-02-19T22:25:44.059Z,86.17
2023-02-19T22:28:11.408Z,86.38
2023-02-19T22:30:38.504Z,86.35
2023-02-19T22:33:05.597Z,86.90
2023-02-19T22:35:32.785Z,87.01
2023-02-19T22:37:59.853Z,86.99
2023-02-19T22:40:26.942Z,87.38
2023-02-19T22:42:54.010Z,87.88
2023-02-19T22:45:21.104Z,88.06
2023-02-19T22:47:48.606Z,88.17
2023-02-19T22:50:20.301Z,88.71
2023-02-19T22:52:47.300Z,88.90
2023-02-19T22:55:14.190Z,89.04
2023-02-19T22:57:41.226Z,89.13
2023-02-19T23:00:09.381Z,89.16
2023-02-19T23:02:36.297Z,89.65
2023-02-19T23:05:03.623Z,89.56
2023-02-19T23:07:30.744Z,89.60
2023-02-19T23:09:57.779Z,89.60
2023-02-19T23:12:25.055Z,89.59
2023-02-19T23:14:51.822Z,89.41
2023-02-19T23:17:18.710Z,89.48
2023-02-19T23:19:46.133Z,89.50
2023-02-19T23:22:13.055Z,89.60
2023-02-19T23:24:40.213Z,89.73
2023-02-19T23:27:07.398Z,89.84
2023-02-19T23:29:34.322Z,89.87
2023-02-19T23:32:01.552Z,89.94
2023-02-19T23:34:28.720Z,90.04
2023-02-19T23:36:55.630Z,89.82
2023-02-19T23:39:22.776Z,89.99
2023-02-19T23:41:54.072Z,89.87
2023-02-19T23:44:22.545Z,90.02
2023-02-19T23:46:51.125Z,90.26
2023-02-19T23:49:19.029Z,90.44
2023-02-19T23:51:46.063Z,90.41
2023-02-19T23:54:13.353Z,90.53
2023-02-19T23:56:40.037Z,90.33
2023-02-19T23:59:07.187Z,90.78
